createdAt,value
2023-02-11T00:01:55.617Z,2.56
2023-02-11T00:04:22.569Z,2.61
2023-02-11T00:06:49.147Z,2.53
2023-02-11T00:09:15.746Z,2.58
2023-02-11T00:11:42.347Z,2.63
2023-02-11T00:14:10.842Z,2.69
2023-02-11T00:16:37.562Z,2.75
2023-02-11T00:19:06.341Z,2.77
2023-02-11T00:21:33.425Z,2.69
2023-02-11T00:24:02.215Z,2.71
2023-02-11T00:26:31.812Z,2.78
2023-02-11T00:28:59.087Z,2.79
2023-02-11T00:31:26.639Z,2.79
2023-02-11T00:33:53.932Z,2.82
2023-02-11T00:36:23.702Z,2.83
2023-02-11T00:38:51.759Z,2.82
2023-02-11T00:41:19.070Z,2.82
2023-02-11T00:43:45.865Z,2.83
2023-02-11T00:46:12.815Z,2.80
2023-02-11T00:48:42.214Z,2.85
2023-02-11T00:51:09.633Z,2.82
2023-02-11T00:53:36.688Z,2.83
2023-02-11T00:56:06.828Z,2.82
2023-02-11T00:58:34.363Z,2.78
2023-02-11T01:01:01.020Z,2.85
2023-02-11T01:03:27.755Z,2.88
2023-02-11T01:05:55.943Z,2.93
2023-02-11T01:08:22.738Z,2.89
2023-02-11T01:11:00.830Z,2.86
2023-02-11T01:13:29.040Z,2.94
2023-02-11T01:15:56.494Z,2.94
2023-02-11T01:18:26.823Z,2.93
2023-02-11T01:20:56.543Z,2.92
2023-02-11T01:23:23.177Z,2.95
2023-02-11T01:25:50.425Z,2.91
2023-02-11T01:28:38.224Z,2.92
2023-02-11T01:31:04.949Z,2.95
2023-02-11T01:33:34.274Z,2.95
2023-02-11T01:36:03.157Z,2.94
2023-02-11T01:38:30.794Z,2.87
2023-02-11T01:41:00.434Z,2.91
2023-02-11T01:43:29.704Z,2.90
2023-02-11T01:46:01.717Z,2.89
2023-02-11T01:48:32.054Z,2.91
2023-02-11T01:51:03.492Z,2.93
2023-02-11T01:53:49.204Z,2.94
2023-02-11T01:56:37.582Z,2.97
2023-02-11T01:59:09.530Z,3.04
2023-02-11T02:01:38.083Z,3.01
2023-02-11T02:04:05.605Z,2.96
2023-02-11T02:06:45.471Z,3.03
2023-02-11T02:09:27.203Z,2.99
2023-02-11T02:11:54.008Z,3.01
2023-02-11T02:14:20.683Z,3.05
2023-02-11T02:16:47.330Z,2.93
2023-02-11T02:19:51.036Z,3.01
2023-02-11T02:22:26.745Z,3.06
2023-02-11T02:25:13.678Z,3.02
2023-02-11T02:28:14.727Z,2.96
2023-02-11T02:31:00.011Z,3.07
2023-02-11T02:33:51.288Z,3.07
2023-02-11T02:36:30.984Z,3.05
2023-02-11T02:39:01.215Z,3.11
2023-02-11T02:41:33.037Z,3.15
2023-02-11T02:44:00.216Z,3.07
2023-02-11T02:46:32.226Z,3.13
2023-02-11T02:48:59.048Z,3.09
2023-02-11T02:51:47.351Z,3.19
2023-02-11T02:54:39.241Z,3.14
2023-02-11T02:57:30.175Z,3.24
2023-02-11T03:00:18.299Z,3.26
2023-02-11T03:02:50.963Z,3.28
2023-02-11T03:05:47.614Z,3.22
2023-02-11T03:08:30.191Z,3.20
2023-02-11T03:10:58.183Z,3.31
2023-02-11T03:13:28.099Z,3.23
2023-02-11T03:15:56.938Z,3.30
2023-02-11T03:18:26.485Z,3.36
2023-02-11T03:20:54.472Z,3.28
2023-02-11T03:23:29.562Z,3.29
2023-02-11T03:26:03.462Z,3.31
2023-02-11T03:28:39.004Z,3.42
2023-02-11T03:31:13.008Z,3.34
2023-02-11T03:33:54.812Z,3.38
2023-02-11T03:36:27.519Z,3.37
2023-02-11T03:38:56.976Z,3.43
2023-02-11T03:41:24.669Z,3.38
2023-02-11T03:43:54.449Z,3.44
2023-02-11T03:46:27.387Z,3.42
2023-02-11T03:48:56.589Z,3.51
2023-02-11T03:51:24.393Z,3.50
2023-02-11T03:53:53.308Z,3.52
2023-02-11T03:56:22.450Z,3.54
2023-02-11T03:58:49.195Z,3.49
2023-02-11T04:01:15.948Z,3.50
2023-02-11T04:03:42.842Z,3.57
2023-02-11T04:06:09.551Z,3.61
2023-02-11T04:08:36.139Z,3.57
2023-02-11T04:11:02.816Z,3.58
2023-02-11T04:13:29.522Z,3.57
2023-02-11T04:15:56.162Z,3.64
2023-02-11T04:18:22.781Z,3.65
2023-02-11T04:20:50.515Z,3.61
2023-02-11T04:23:17.228Z,3.66
2023-02-11T04:25:43.854Z,3.62
2023-02-11T04:28:10.512Z,3.68
2023-02-11T04:30:37.152Z,3.68
2023-02-11T04:33:03.798Z,3.63
2023-02-11T04:35:30.426Z,3.72
2023-02-11T04:37:57.481Z,3.73
2023-02-11T04:40:24.188Z,3.68
2023-02-11T04:42:50.807Z,3.70
2023-02-11T04:45:17.534Z,3.75
2023-02-11T04:47:44.157Z,3.82
2023-02-11T04:50:10.861Z,3.76
2023-02-11T04:52:37.531Z,3.79
2023-02-11T04:55:04.476Z,3.77
2023-02-11T04:57:31.134Z,3.72
2023-02-11T04:59:57.792Z,3.80
2023-02-11T05:02:24.495Z,3.86
2023-02-11T05:04:51.116Z,3.88
2023-02-11T05:07:17.748Z,3.86
2023-02-11T05:09:44.422Z,3.89
2023-02-11T05:12:11.070Z,3.90
2023-02-11T05:14:37.721Z,3.95
2023-02-11T05:17:04.322Z,3.99
2023-02-11T05:19:32.042Z,4.02
2023-02-11T05:22:03.028Z,4.03
2023-02-11T05:24:32.383Z,4.03
2023-02-11T05:26:59.221Z,4.06
2023-02-11T05:29:25.917Z,4.08
2023-02-11T05:31:52.690Z,4.10
2023-02-11T05:34:19.339Z,4.11
2023-02-11T05:36:45.968Z,4.12
2023-02-11T05:39:12.685Z,4.17
2023-02-11T05:41:39.338Z,4.09
2023-02-11T05:44:06.035Z,4.15
2023-02-11T05:46:32.747Z,4.16
2023-02-11T05:48:59.874Z,4.19
2023-02-11T05:51:26.484Z,4.21
2023-02-11T05:53:53.403Z,4.21
2023-02-11T05:56:20.041Z,4.22
2023-02-11T05:58:46.715Z,4.21
2023-02-11T06:01:13.367Z,4.27
2023-02-11T06:03:40.142Z,4.29
2023-02-11T06:06:10.695Z,4.28
2023-02-11T06:08:39.197Z,4.35
2023-02-11T06:11:06.039Z,4.32
2023-02-11T06:13:32.642Z,4.30
2023-02-11T06:16:00.782Z,4.29
2023-02-11T06:18:27.918Z,4.36
2023-02-11T06:20:54.551Z,4.37
2023-02-11T06:23:21.809Z,4.37
2023-02-11T06:25:49.093Z,4.31
2023-02-11T06:28:16.307Z,4.34
2023-02-11T06:30:43.030Z,4.33
2023-02-11T06:33:09.723Z,4.34
2023-02-11T06:35:38.798Z,4.34
2023-02-11T06:38:05.449Z,4.35
2023-02-11T06:40:32.116Z,4.37
2023-02-11T06:42:58.748Z,4.42
2023-02-11T06:45:25.391Z,4.47
2023-02-11T06:47:52.842Z,4.47
2023-02-11T06:50:19.531Z,4.47
2023-02-11T06:52:46.274Z,4.47
2023-02-11T06:55:13.286Z,4.44
2023-02-11T06:57:40.032Z,4.44
2023-02-11T07:00:07.220Z,4.45
2023-02-11T07:02:33.960Z,4.43
2023-02-11T07:05:00.606Z,4.46
2023-02-11T07:07:27.545Z,4.43
2023-02-11T07:09:54.181Z,4.38
2023-02-11T07:12:20.867Z,4.48
2023-02-11T07:14:47.503Z,4.46
2023-02-11T07:17:14.172Z,4.46
2023-02-11T07:19:40.900Z,4.53
2023-02-11T07:22:07.499Z,4.51
2023-02-11T07:24:34.137Z,4.47
2023-02-11T07:27:00.717Z,4.47
2023-02-11T07:29:27.347Z,4.53
2023-02-11T07:31:54.067Z,4.48
2023-02-11T07:34:20.761Z,4.46
2023-02-11T07:36:48.976Z,4.47
2023-02-11T07:39:16.049Z,4.50
2023-02-11T07:41:44.460Z,4.50
2023-02-11T07:44:11.042Z,4.57
2023-02-11T07:46:37.786Z,4.56
2023-02-11T07:49:04.444Z,4.59
2023-02-11T07:51:31.368Z,4.59
2023-02-11T07:53:59.609Z,4.64
2023-02-11T07:56:26.901Z,4.64
2023-02-11T07:58:54.484Z,4.68
2023-02-11T08:01:25.358Z,4.69
2023-02-11T08:03:52.686Z,4.71
2023-02-11T08:06:21.021Z,4.73
2023-02-11T08:08:47.820Z,4.73
2023-02-11T08:11:22.645Z,4.75
2023-02-11T08:13:49.260Z,4.72
2023-02-11T08:16:24.724Z,4.76
2023-02-11T08:18:52.157Z,4.79
2023-02-11T08:21:19.666Z,4.78
2023-02-11T08:23:49.805Z,4.81
2023-02-11T08:26:28.432Z,4.85
2023-02-11T08:28:56.730Z,4.80
2023-02-11T08:31:26.144Z,4.82
2023-02-11T08:33:54.613Z,4.85
2023-02-11T08:36:23.839Z,4.90
2023-02-11T08:38:50.566Z,4.88
2023-02-11T08:41:17.934Z,4.92
2023-02-11T08:43:45.508Z,4.94
2023-02-11T08:46:16.951Z,4.94
2023-02-11T08:48:44.387Z,4.97
2023-02-11T08:51:18.303Z,5.01
2023-02-11T08:53:45.899Z,5.06
2023-02-11T08:56:19.030Z,4.98
2023-02-11T08:58:46.084Z,5.05
2023-02-11T09:01:13.368Z,5.09
2023-02-11T09:03:40.371Z,5.08
2023-02-11T09:06:08.685Z,5.11
2023-02-11T09:08:36.707Z,5.11
2023-02-11T09:11:13.461Z,5.15
2023-02-11T09:13:41.918Z,5.12
2023-02-11T09:16:13.950Z,5.12
2023-02-11T09:18:40.546Z,5.14
2023-02-11T09:21:09.444Z,5.13
2023-02-11T09:23:41.719Z,5.12
2023-02-11T09:26:10.546Z,5.19
2023-02-11T09:28:37.278Z,5.24
2023-02-11T09:31:08.635Z,5.16
2023-02-11T09:33:35.895Z,5.18
2023-02-11T09:36:06.757Z,5.18
2023-02-11T09:38:33.727Z,5.27
2023-02-11T09:41:03.970Z,5.18
2023-02-11T09:43:39.353Z,5.26
2023-02-11T09:46:06.377Z,5.24
2023-02-11T09:48:38.734Z,5.28
2023-02-11T09:51:06.174Z,5.33
2023-02-11T09:53:37.449Z,5.30
2023-02-11T09:56:11.470Z,5.34
2023-02-11T09:58:41.534Z,5.41
2023-02-11T10:01:57.445Z,5.34
2023-02-11T10:04:48.531Z,5.38
2023-02-11T10:07:29.848Z,5.39
2023-02-11T10:10:13.586Z,5.33
2023-02-11T10:12:58.240Z,5.44
2023-02-11T10:15:39.973Z,5.50
2023-02-11T10:18:25.696Z,5.45
2023-02-11T10:21:01.552Z,5.50
2023-02-11T10:23:31.805Z,5.47
2023-02-11T10:26:00.285Z,5.53
2023-02-11T10:28:32.156Z,5.52
2023-02-11T10:31:08.637Z,5.56
2023-02-11T10:33:54.171Z,5.65
2023-02-11T10:36:24.019Z,5.61
2023-02-11T10:38:50.683Z,5.72
2023-02-11T10:41:22.016Z,5.68
2023-02-11T10:43:49.806Z,5.74
2023-02-11T10:46:19.771Z,5.75
2023-02-11T10:48:50.541Z,5.81
2023-02-11T10:51:27.378Z,5.82
2023-02-11T10:54:08.327Z,5.84
2023-02-11T10:56:36.846Z,5.82
2023-02-11T10:59:29.673Z,5.80
2023-02-11T11:02:06.943Z,5.75
2023-02-11T11:04:33.738Z,5.85
2023-02-11T11:07:23.709Z,5.85
2023-02-11T11:09:52.482Z,5.90
2023-02-11T11:12:30.281Z,5.92
2023-02-11T11:15:00.045Z,5.92
2023-02-11T11:17:29.686Z,5.93
2023-02-11T11:20:14.425Z,6.05
2023-02-11T11:22:41.982Z,6.10
2023-02-11T11:25:26.947Z,6.16
2023-02-11T11:27:56.338Z,6.17
2023-02-11T11:30:27.144Z,6.26
2023-02-11T11:32:53.999Z,6.30
2023-02-11T11:35:24.959Z,6.35
2023-02-11T11:38:01.355Z,6.39
2023-02-11T11:40:34.493Z,6.37
2023-02-11T11:43:13.192Z,6.56
2023-02-11T11:45:40.498Z,6.56
2023-02-11T11:48:13.625Z,6.65
2023-02-11T11:50:44.396Z,6.65
2023-02-11T11:53:24.801Z,6.65
2023-02-11T11:56:14.609Z,6.76
2023-02-11T11:58:41.407Z,6.76
2023-02-11T12:01:20.163Z,6.74
2023-02-11T12:04:08.423Z,6.82
2023-02-11T12:06:59.007Z,6.81
2023-02-11T12:09:47.496Z,6.78
2023-02-11T12:16:41.988Z,6.78
2023-02-11T12:19:36.576Z,6.83
2023-02-11T12:22:23.364Z,6.88
2023-02-11T12:25:05.349Z,6.85
2023-02-11T12:27:37.722Z,6.83
2023-02-11T12:30:14.435Z,6.82
2023-02-11T12:33:04.844Z,6.84
2023-02-11T12:35:52.175Z,6.82
2023-02-11T12:38:37.625Z,6.89
2023-02-11T12:41:39.423Z,6.78
2023-02-11T12:44:07.667Z,6.80
2023-02-11T12:46:51.881Z,6.78
2023-02-11T12:49:50.734Z,6.91
2023-02-11T12:52:32.546Z,6.94
2023-02-11T12:55:21.017Z,6.86
2023-02-11T12:57:49.119Z,6.89
2023-02-11T13:00:22.190Z,6.83
2023-02-11T13:03:10.969Z,6.86
2023-02-11T13:05:44.527Z,6.89
2023-02-11T13:08:28.061Z,6.91
2023-02-11T13:10:58.076Z,6.95
2023-02-11T13:13:33.695Z,7.00
2023-02-11T13:16:12.938Z,6.96
2023-02-11T13:19:06.839Z,6.98
2023-02-11T13:21:56.920Z,7.01
2023-02-11T13:28:40.310Z,7.14
2023-02-11T13:31:28.848Z,7.13
2023-02-11T13:33:55.800Z,7.18
2023-02-11T13:36:25.224Z,7.20
2023-02-11T13:38:59.933Z,7.30
2023-02-11T13:41:36.980Z,7.30
2023-02-11T13:44:08.653Z,7.37
2023-02-11T13:47:02.276Z,7.41
2023-02-11T13:49:40.878Z,7.37
2023-02-11T13:52:22.716Z,7.39
2023-02-11T13:54:52.721Z,7.34
2023-02-11T13:57:19.265Z,7.29
2023-02-11T13:59:48.678Z,7.37
2023-02-11T14:02:49.640Z,7.32
2023-02-11T14:05:46.193Z,7.17
2023-02-11T14:08:37.598Z,7.19
2023-02-11T14:11:30.671Z,7.23
2023-02-11T14:14:24.431Z,7.15
2023-02-11T14:17:08.019Z,7.17
2023-02-11T14:19:43.929Z,7.21
2023-02-11T14:22:10.569Z,7.19
2023-02-11T14:24:37.199Z,7.06
2023-02-11T14:27:11.255Z,7.10
2023-02-11T14:29:46.183Z,7.14
2023-02-11T14:32:41.046Z,7.20
2023-02-11T14:35:15.162Z,7.07
2023-02-11T14:37:50.052Z,6.97
2023-02-11T14:40:39.189Z,7.09
2023-02-11T14:43:20.424Z,7.02
2023-02-11T14:45:51.167Z,7.00
2023-02-11T14:48:19.736Z,6.96
2023-02-11T14:51:02.334Z,7.03
2023-02-11T14:53:31.543Z,7.07
2023-02-11T14:55:59.237Z,7.05
2023-02-11T14:58:25.856Z,7.03
2023-02-11T15:01:06.509Z,6.97
2023-02-11T15:03:34.889Z,7.00
2023-02-11T15:06:07.498Z,6.96
2023-02-11T15:08:36.984Z,7.00
2023-02-11T15:11:10.028Z,6.94
2023-02-11T15:13:36.862Z,6.88
2023-02-11T15:16:08.504Z,6.98
2023-02-11T15:18:40.991Z,7.00
2023-02-11T15:21:08.217Z,6.90
2023-02-11T15:23:35.388Z,6.89
2023-02-11T15:26:05.703Z,6.89
2023-02-11T15:28:34.218Z,6.87
2023-02-11T15:31:05.993Z,6.88
2023-02-11T15:33:33.456Z,6.94
2023-02-11T15:36:00.842Z,6.94
2023-02-11T15:38:28.218Z,6.93
2023-02-11T15:41:02.775Z,6.97
2023-02-11T15:43:51.054Z,6.89
2023-02-11T15:46:21.305Z,6.81
2023-02-11T15:48:50.305Z,6.87
2023-02-11T15:51:29.445Z,6.84
2023-02-11T15:53:58.773Z,6.70
2023-02-11T15:56:35.390Z,6.70
2023-02-11T15:59:16.646Z,6.81
2023-02-11T16:01:44.849Z,6.85
2023-02-11T16:04:23.812Z,6.84
2023-02-11T16:06:51.859Z,6.72
2023-02-11T16:09:34.307Z,6.70
2023-02-11T16:12:21.365Z,6.79
2023-02-11T16:14:52.230Z,6.78
2023-02-11T16:17:19.059Z,6.72
2023-02-11T16:19:47.930Z,6.68
2023-02-11T16:22:20.365Z,6.69
2023-02-11T16:24:48.768Z,6.70
2023-02-11T16:27:30.447Z,6.62
2023-02-11T16:29:57.772Z,6.75
2023-02-11T16:32:29.056Z,6.72
2023-02-11T16:35:01.395Z,6.63
2023-02-11T16:37:28.209Z,6.71
2023-02-11T16:39:55.965Z,6.58
2023-02-11T16:42:23.347Z,6.60
2023-02-11T16:44:50.130Z,6.49
2023-02-11T16:47:23.703Z,6.53
2023-02-11T16:49:50.531Z,6.59
2023-02-11T16:52:18.287Z,6.60
2023-02-11T16:54:45.168Z,6.58
2023-02-11T16:57:15.310Z,6.48
2023-02-11T16:59:42.541Z,6.46
2023-02-11T17:02:29.153Z,6.52
2023-02-11T17:04:58.779Z,6.69
2023-02-11T17:07:25.386Z,6.52
2023-02-11T17:14:15.610Z,6.49
2023-02-11T17:16:42.996Z,6.46
2023-02-11T17:19:14.177Z,6.53
2023-02-11T17:21:45.107Z,6.65
2023-02-11T17:24:12.202Z,6.55
2023-02-11T17:26:39.349Z,6.65
2023-02-11T17:29:07.185Z,6.65
2023-02-11T17:31:34.244Z,6.49
2023-02-11T17:34:01.339Z,6.54
2023-02-11T17:36:28.089Z,6.50
2023-02-11T17:38:55.116Z,6.60
2023-02-11T17:41:21.725Z,6.59
2023-02-11T17:43:48.330Z,6.52
2023-02-11T17:46:15.182Z,6.47
2023-02-11T17:48:41.812Z,6.54
2023-02-11T17:51:32.388Z,6.50
2023-02-11T17:54:01.322Z,6.55
2023-02-11T17:56:29.896Z,6.52
2023-02-11T17:58:56.546Z,6.54
2023-02-11T18:01:23.303Z,6.61
2023-02-11T18:03:50.077Z,6.61
2023-02-11T18:06:17.074Z,6.59
2023-02-11T18:08:43.871Z,6.67
2023-02-11T18:11:12.141Z,6.55
2023-02-11T18:13:38.978Z,6.62
2023-02-11T18:16:06.287Z,6.58
2023-02-11T18:18:33.094Z,6.69
2023-02-11T18:21:01.715Z,6.61
2023-02-11T18:23:28.696Z,6.69
2023-02-11T18:25:55.427Z,6.66
2023-02-11T18:28:22.224Z,6.66
2023-02-11T18:30:48.974Z,6.67
2023-02-11T18:33:15.597Z,6.58
2023-02-11T18:35:43.677Z,6.60
2023-02-11T18:38:10.540Z,6.71
2023-02-11T18:40:40.801Z,6.60
2023-02-11T18:43:07.705Z,6.59
2023-02-11T18:45:34.626Z,6.57
2023-02-11T18:48:03.625Z,6.63
2023-02-11T18:50:30.275Z,6.58
2023-02-11T18:52:56.874Z,6.61
2023-02-11T18:55:25.777Z,6.49
2023-02-11T18:57:52.941Z,6.61
2023-02-11T19:00:20.856Z,6.47
2023-02-11T19:02:48.039Z,6.48
2023-02-11T19:05:15.669Z,6.56
2023-02-11T19:07:42.671Z,6.54
2023-02-11T19:10:10.171Z,6.64
2023-02-11T19:12:39.167Z,6.63
2023-02-11T19:15:09.316Z,6.57
2023-02-11T19:17:36.268Z,6.49
2023-02-11T19:20:06.004Z,6.48
2023-02-11T19:22:32.715Z,6.67
2023-02-11T19:24:59.620Z,6.55
2023-02-11T19:27:26.316Z,6.46
2023-02-11T19:29:53.073Z,6.59
2023-02-11T19:32:19.809Z,6.41
2023-02-11T19:34:46.510Z,6.34
2023-02-11T19:37:13.526Z,6.38
2023-02-11T19:39:41.171Z,6.43
2023-02-11T19:42:07.893Z,6.41
2023-02-11T19:44:34.504Z,6.31
2023-02-11T19:47:01.789Z,6.30
2023-02-11T19:49:28.414Z,6.29
2023-02-11T19:51:58.235Z,6.26
2023-02-11T19:54:31.842Z,6.23
2023-02-11T19:56:58.801Z,6.17
2023-02-11T19:59:25.504Z,6.17
2023-02-11T20:01:53.889Z,6.19
2023-02-11T20:04:20.626Z,6.28
2023-02-11T20:06:49.051Z,6.25
2023-02-11T20:09:15.908Z,6.13
2023-02-11T20:11:42.694Z,6.07
2023-02-11T20:14:12.565Z,6.08
2023-02-11T20:16:48.095Z,6.12
2023-02-11T20:19:18.127Z,6.02
2023-02-11T20:21:47.329Z,6.07
2023-02-11T20:24:15.469Z,5.98
2023-02-11T20:26:42.568Z,5.95
2023-02-11T20:29:09.292Z,6.02
2023-02-11T20:31:36.818Z,5.98
2023-02-11T20:34:03.807Z,5.93
2023-02-11T20:36:35.522Z,5.96
2023-02-11T20:39:04.883Z,6.01
2023-02-11T20:41:34.346Z,6.11
2023-02-11T20:44:05.789Z,6.03
2023-02-11T20:46:34.039Z,5.93
2023-02-11T20:49:00.992Z,5.98
2023-02-11T20:51:30.546Z,5.99
2023-02-11T20:53:57.745Z,6.12
2023-02-11T20:56:27.339Z,6.08
2023-02-11T20:58:54.728Z,6.09
2023-02-11T21:01:30.761Z,6.05
2023-02-11T21:03:59.935Z,6.06
2023-02-11T21:06:31.612Z,6.03
2023-02-11T21:08:58.347Z,6.00
2023-02-11T21:11:25.733Z,5.97
2023-02-11T21:13:52.324Z,5.96
2023-02-11T21:16:22.874Z,5.92
2023-02-11T21:18:52.422Z,6.01
2023-02-11T21:21:19.529Z,5.93
2023-02-11T21:23:46.576Z,5.92
2023-02-11T21:26:13.876Z,5.93
2023-02-11T21:28:41.207Z,5.94
2023-02-11T21:31:11.840Z,5.90
2023-02-11T21:33:51.757Z,5.91
2023-02-11T21:36:18.921Z,5.90
2023-02-11T21:38:56.280Z,5.99
2023-02-11T21:41:23.266Z,5.88
2023-02-11T21:43:50.754Z,5.92
2023-02-11T21:53:27.036Z,5.74
2023-02-11T21:56:08.106Z,5.75
2023-02-11T21:58:35.598Z,5.67
2023-02-11T22:01:02.770Z,5.58
2023-02-11T22:03:29.542Z,5.58
2023-02-11T22:05:56.512Z,5.62
2023-02-11T22:08:23.380Z,5.61
2023-02-11T22:10:50.146Z,5.61
2023-02-11T22:13:16.800Z,5.55
2023-02-11T22:15:43.712Z,5.80
2023-02-11T22:18:10.350Z,5.61
2023-02-11T22:20:37.047Z,5.61
2023-02-11T22:23:03.762Z,5.55
2023-02-11T22:25:30.444Z,5.53
2023-02-11T22:27:57.394Z,5.49
2023-02-11T22:30:24.283Z,5.45
2023-02-11T22:32:51.266Z,5.45
2023-02-11T22:35:18.325Z,5.45
2023-02-11T22:37:45.236Z,5.43
2023-02-11T22:40:12.792Z,5.41
2023-02-11T22:42:39.509Z,5.37
2023-02-11T22:45:07.466Z,5.34
2023-02-11T22:47:34.347Z,5.32
2023-02-11T22:50:01.201Z,5.32
2023-02-11T22:52:28.402Z,5.32
2023-02-11T22:54:55.308Z,5.31
2023-02-11T22:57:21.980Z,5.29
2023-02-11T22:59:49.114Z,5.26
2023-02-11T23:02:15.884Z,5.25
2023-02-11T23:04:43.052Z,5.24
2023-02-11T23:07:09.748Z,5.22
2023-02-11T23:09:36.378Z,5.19
2023-02-11T23:12:03.059Z,5.21
2023-02-11T23:14:29.902Z,5.22
2023-02-11T23:16:56.781Z,5.22
2023-02-11T23:19:23.975Z,5.19
2023-02-11T23:21:51.353Z,5.20
2023-02-11T23:24:18.014Z,5.30
2023-02-11T23:26:44.930Z,5.25
2023-02-11T23:29:12.033Z,5.24
2023-02-11T23:31:40.854Z,5.27
2023-02-11T23:34:08.049Z,5.26
2023-02-11T23:36:35.073Z,5.30
2023-02-11T23:39:01.745Z,5.25
2023-02-11T23:41:28.847Z,5.27
2023-02-11T23:43:57.103Z,5.30
2023-02-11T23:46:25.975Z,5.46
2023-02-11T23:48:53.292Z,5.34
2023-02-11T23:51:20.840Z,5.27
2023-02-11T23:53:49.203Z,5.30
2023-02-11T23:56:21.632Z,5.29
2023-02-11T23:58:49.828Z,5.34
